Latest Weather Observations for Charleville

IDQ60801

Issued at 4:35 pm EST Tuesday 2 September 2014 (issued every 30 minutes, with the page automatically refreshed every 10 minutes)

About weather observations | Map of weather stations | Latest weather observations for QLD | Other Formats
Station Details ID: 044021 Name: CHARLEVILLE AERO Lat: -26.41 Lon: 146.26 Height: 301.6 m
Data from the previous 72 hours. | See also: Recent months at Charleville
Date/Time
EST
Temp
°C
App
Temp
°C
Dew
Point
Rel
Hum
%
Delta-T
°C
Wind Press
QNH
hPa
Press
MSL
hPa
Rain
since 9 am
mm
Dir
 
Spd
km/h
Gust
km/h
Spd
kts
Gust
kts
02/04:30pm 19.8 13.4 -1.8 23 9.3 SSW 22 32 12 17 1016.8 - 0.0
02/04:00pm 20.3 14.5 -1.6 23 9.5 SW 19 32 10 17 1016.7 - 0.0
02/03:30pm 20.4 14.5 -0.8 24 9.4 SW 20 37 11 20 1016.5 - 0.0
02/03:00pm 20.4 13.3 -1.4 23 9.5 SSW 26 41 14 22 1016.4 1015.9 0.0
02/02:30pm 20.4 14.1 -1.3 23 9.5 SSW 22 35 12 19 1016.6 - 0.0
02/02:00pm 20.4 12.7 -2.7 21 9.9 SW 28 37 15 20 1016.8 - 0.0
02/01:30pm 20.9 14.2 -1.4 22 9.8 S 24 33 13 18 1017.0 - 0.0
02/01:11pm 19.8 12.1 -2.7 21 9.5 SW 28 50 15 27 1017.3 - 0.0
02/01:00pm 20.2 14.0 -2.9 21 9.8 SW 20 32 11 17 1017.4 - 0.0
02/12:30pm 19.9 12.4 -1.1 24 9.2 WSW 28 43 15 23 1017.8 - 0.0
02/12:00pm 19.6 13.0 -0.5 26 8.9 SSW 24 37 13 20 1018.4 1017.9 0.0
02/11:30am 19.7 13.1 -0.3 26 8.9 SW 24 33 13 18 1018.5 - 0.0
02/11:00am 19.4 12.4 -0.7 26 8.9 SW 26 41 14 22 1018.9 - 0.0
02/10:30am 19.1 13.0 0.3 28 8.4 SSW 22 35 12 19 1018.9 - 0.0
02/10:00am 18.7 13.1 3.2 35 7.3 SSW 22 33 12 18 1018.9 - 0.0
02/09:30am 17.8 12.4 4.5 41 6.4 SSW 22 32 12 17 1018.9 - 0.0
02/09:00am 17.5 11.9 5.6 45 5.8 S 24 35 13 19 1018.7 1018.2 0.0
02/08:30am 16.7 11.9 4.5 44 5.8 SSW 19 32 10 17 1018.4 - 0.0
02/08:00am 16.2 12.3 3.4 42 6.0 SSW 13 24 7 13 1017.9 - 0.0
02/07:30am 15.1 11.0 2.3 42 5.8 SSW 13 17 7 9 1017.6 - 0.0
02/07:00am 14.2 10.0 1.5 42 5.6 SSW 13 17 7 9 1017.2 - 0.0
02/06:30am 14.4 10.1 1.3 41 5.8 SSW 13 20 7 11 1016.7 - 0.0
02/06:00am 14.3 9.6 -1.7 33 6.6 SSW 13 19 7 10 1015.8 1015.3 0.0
02/05:30am 13.5 8.9 -4.2 29 6.8 SW 11 13 6 7 1015.3 - 0.0
02/05:00am 11.1 7.2 -1.4 42 5.0 W 9 9 5 5 1014.5 - 0.0
02/04:30am 11.2 6.8 -2.4 38 5.3 WSW 11 13 6 7 1014.3 - 0.0
02/04:00am 11.7 7.5 -3.5 34 5.8 N 9 11 5 6 1012.8 - 0.0
02/03:30am 11.5 6.6 -3.2 35 5.7 N 13 15 7 8 1012.7 - 0.0
02/03:00am 11.3 7.2 -2.7 37 5.5 N 9 11 5 6 1013.2 1012.7 0.0
02/02:30am 11.5 8.2 -1.5 40 5.2 N 6 9 3 5 1013.7 - 0.0
02/02:00am 11.9 8.3 -2.3 37 5.6 NNE 7 9 4 5 1013.9 - 0.0
02/01:30am 11.6 8.1 -1.5 40 5.3 N 7 7 4 4 1014.1 - 0.0
02/01:00am 11.7 8.2 -1.3 40 5.3 N 7 9 4 5 1014.3 - 0.0
02/12:30am 11.5 7.7 -1.0 42 5.1 NNE 9 9 5 5 1014.7 - 0.0
02/12:00am 10.6 7.3 0.1 48 4.3 NE 7 7 4 4 1014.9 1014.3 0.0
 
Date/Time
EST
Temp
°C
App
Temp
°C
Dew
Point
Rel
Hum
%
Delta-T
°C
Wind Press
QNH
hPa
Press
MSL
hPa
Rain
since 9 am
mm
Dir
 
Spd
km/h
Gust
km/h
Spd
kts
Gust
kts
01/11:30pm 10.6 8.6 -0.2 47 4.4 CALM 0 0 0 0 1015.2 - 0.0
01/11:00pm 11.0 9.0 -0.2 46 4.6 CALM 0 0 0 0 1015.5 - 0.0
01/10:30pm 11.2 9.2 -0.3 45 4.7 CALM 0 0 0 0 1015.5 - 0.0
01/10:00pm 11.9 9.8 -0.9 41 5.2 CALM 0 0 0 0 1015.6 - 0.0
01/09:30pm 12.7 10.6 -0.5 40 5.5 CALM 0 0 0 0 1015.6 - 0.0
01/09:00pm 13.6 11.6 0.1 39 5.7 CALM 0 0 0 0 1015.5 1015.0 0.0
01/08:30pm 14.7 11.8 -0.9 34 6.6 NNE 4 7 2 4 1015.4 - 0.0
01/08:00pm 15.5 13.4 -0.8 33 6.9 CALM 0 0 0 0 1015.4 - 0.0
01/07:30pm 16.7 14.3 -2.8 26 8.0 CALM 0 0 0 0 1014.9 - 0.0
01/07:00pm 18.3 16.1 -1.4 26 8.5 CALM 0 0 0 0 1014.7 - 0.0
01/06:30pm 20.6 18.5 -0.7 24 9.5 CALM 0 0 0 0 1014.3 - 0.0
01/06:00pm 24.0 19.9 -7.0 12 12.6 W 7 9 4 5 1014.2 1013.7 0.0
01/05:30pm 26.5 20.7 -14.2 6 14.9 WNW 13 20 7 11 1014.2 - 0.0
01/05:00pm 27.1 21.5 -11.6 7 14.9 W 13 19 7 10 1014.1 - 0.0
01/04:30pm 27.3 21.3 -11.5 7 15.0 WNW 15 22 8 12 1013.9 - 0.0
01/04:00pm 27.1 20.9 -15.1 5 15.3 WNW 15 28 8 15 1014.1 - 0.0
01/03:30pm 27.4 20.9 -12.9 6 15.2 NW 17 26 9 14 1014.2 - 0.0
01/03:00pm 26.9 19.7 -16.5 5 15.3 NNW 20 28 11 15 1014.2 1013.7 0.0
01/02:30pm 26.9 20.0 -13.6 6 15.0 W 19 28 10 15 1014.5 - 0.0
01/02:00pm 26.9 19.8 -13.3 6 15.0 NNW 20 39 11 21 1015.1 - 0.0
01/01:30pm 26.1 19.8 -9.8 8 14.1 NW 17 26 9 14 1015.8 - 0.0
01/01:00pm 25.8 20.5 -7.4 10 13.6 NW 13 20 7 11 1016.4 - 0.0
01/12:30pm 25.7 19.7 -10.7 8 14.0 WNW 15 28 8 15 1016.9 - 0.0
01/12:00pm 25.3 19.4 -9.8 9 13.7 WNW 15 24 8 13 1017.2 1016.7 0.0
01/11:30am 25.1 18.2 -10.6 8 13.7 NW 20 30 11 16 1018.0 - 0.0
01/11:00am 24.7 19.9 -2.9 16 12.2 N 13 20 7 11 1018.4 - 0.0
01/10:30am 23.2 17.6 -2.6 18 11.3 N 17 24 9 13 1018.7 - 0.0
01/10:00am 21.8 15.9 -2.3 20 10.5 N 19 26 10 14 1019.0 - 0.0
01/09:30am 19.6 14.7 -0.6 25 8.9 NNE 15 19 8 10 1018.9 - 0.0
01/09:00am 17.9 13.6 -1.9 26 8.4 N 11 13 6 7 1019.1 1018.6 0.0
01/08:30am 14.9 10.1 -2.6 30 7.1 NNE 13 17 7 9 1019.0 - 0.0
01/08:00am 11.7 7.7 -1.9 38 5.4 NNE 9 13 5 7 1018.7 - 0.0
01/07:30am 8.6 5.2 -0.7 52 3.7 NNE 7 11 4 6 1018.6 - 0.0
01/07:00am 6.1 4.2 0.4 67 2.3 CALM 0 0 0 0 1018.8 - 0.0
01/06:30am 4.2 2.1 -0.5 71 1.8 CALM 0 0 0 0 1018.6 - 0.0
01/06:00am 4.3 2.2 -0.5 71 1.8 CALM 0 0 0 0 1018.3 1017.8 0.0
01/05:30am 5.1 3.0 -0.5 67 2.1 CALM 0 0 0 0 1018.2 - 0.0
01/05:00am 5.5 3.4 -0.8 64 2.4 CALM 0 0 0 0 1017.5 - 0.0
01/04:30am 6.0 4.0 0.0 65 2.4 CALM 0 0 0 0 1017.2 - 0.0
01/04:00am 6.3 4.3 0.0 64 2.5 CALM 0 0 0 0 1017.1 - 0.0
01/03:30am 6.9 4.8 -0.5 59 2.9 CALM 0 0 0 0 1016.9 - 0.0
01/03:00am 7.7 4.9 -0.4 56 3.2 NNE 4 7 2 4 1016.9 1016.4 0.0
01/02:30am 7.9 4.5 -0.8 54 3.4 NNE 7 11 4 6 1016.9 - 0.0
01/02:00am 7.8 4.8 0.6 60 2.9 N 6 7 3 4 1017.1 - 0.0
01/01:30am 8.1 6.1 -0.4 55 3.4 CALM 0 0 0 0 1017.4 - 0.0
01/01:00am 8.1 5.1 0.9 60 3.0 ENE 6 7 3 4 1017.6 - 0.0
01/12:30am 7.5 4.8 0.6 61 2.8 ESE 4 7 2 4 1018.2 - 0.0
01/12:00am 8.2 6.3 0.4 58 3.2 CALM 0 0 0 0 1018.4 1018.4 0.0
 
Date/Time
EST
Temp
°C
App
Temp
°C
Dew
Point
Rel
Hum
%
Delta-T
°C
Wind Press
QNH
hPa
Press
MSL
hPa
Rain
since 9 am
mm
Dir
 
Spd
km/h
Gust
km/h
Spd
kts
Gust
kts
31/11:30pm 8.9 6.9 0.0 53 3.6 CALM 0 0 0 0 1018.6 - 0.0
31/11:00pm 9.2 7.2 0.1 53 3.7 CALM 0 0 0 0 1018.6 - 0.0
31/10:30pm 10.1 8.0 -0.6 47 4.3 CALM 0 0 0 0 1018.8 - 0.0
31/10:00pm 10.7 8.7 0.0 47 4.4 CALM 0 0 0 0 1018.9 - 0.0
31/09:30pm 11.2 8.8 -0.2 45 4.7 SSW 2 6 1 3 1018.8 - 0.0
31/09:00pm 11.9 8.6 -0.1 43 5.0 SSE 7 11 4 6 1018.5 1018.5 0.0
31/08:30pm 12.1 10.0 -0.8 41 5.3 CALM 0 0 0 0 1018.3 - 0.0
31/08:00pm 13.2 11.2 -0.1 40 5.6 CALM 0 0 0 0 1017.8 - 0.0
31/07:30pm 14.4 12.2 -1.7 33 6.6 CALM 0 0 0 0 1017.4 - 0.0
31/07:00pm 16.1 13.9 -1.4 30 7.4 CALM 0 0 0 0 1017.1 - 0.0
31/06:30pm 17.7 14.9 -3.0 24 8.6 S 2 7 1 4 1017.1 - 0.0
31/06:00pm 21.0 16.9 -3.0 19 10.2 SSW 9 11 5 6 1016.9 1016.9 0.0
31/05:30pm 23.2 18.6 -8.3 11 12.4 SSW 9 13 5 7 1016.7 - 0.0
31/05:00pm 23.5 18.3 -10.2 10 12.8 SSW 11 15 6 8 1016.4 - 0.0
31/04:30pm 24.1 19.1 -8.4 11 12.9 S 11 20 6 11 1016.2 - 0.0
31/04:00pm 23.9 18.7 -10.4 9 13.0 S 11 19 6 10 1016.3 - 0.0
31/03:30pm 24.0 19.7 -9.0 10 12.9 SSE 7 15 4 8 1016.4 - 0.0
31/03:00pm 24.1 18.9 -10.5 9 13.1 S 11 20 6 11 1016.6 1016.6 0.0
31/02:30pm 23.6 18.8 -10.3 9 12.9 W 9 15 5 8 1016.8 - 0.0
31/02:00pm 23.7 17.8 -10.0 10 12.9 WSW 15 19 8 10 1017.3 - 0.0
31/01:30pm 22.7 18.1 -8.2 12 12.1 WSW 9 19 5 10 1017.7 - 0.0
31/01:00pm 23.0 17.8 -6.7 13 12.0 N 13 22 7 12 1018.4 - 0.0
31/12:30pm 21.9 17.8 -6.5 14 11.4 E 7 13 4 7 1018.9 - 0.0
31/12:00pm 21.6 17.6 -5.7 15 11.1 SSW 7 17 4 9 1019.5 1019.5 0.0
31/11:30am 20.8 15.9 -6.8 15 10.9 S 11 19 6 10 1019.8 - 0.0
31/11:00am 20.1 15.2 -7.1 15 10.6 S 11 17 6 9 1020.3 - 0.0
31/10:30am 20.0 16.4 -3.9 19 9.9 ESE 6 17 3 9 1020.7 - 0.0
31/10:00am 19.2 14.5 -5.4 18 9.8 ESE 11 17 6 9 1020.9 - 0.0
31/09:30am 19.1 14.8 -4.9 19 9.7 E 9 17 5 9 1021.1 - 0.0
31/09:00am 17.5 14.4 0.2 31 7.6 E 6 11 3 6 1021.3 1021.4 0.0
31/08:30am 14.6 12.0 1.1 40 5.9 ENE 4 7 2 4 1021.1 - 0.0
31/08:00am 11.1 9.3 0.9 49 4.3 CALM 0 0 0 0 1021.1 - 0.0
31/07:30am 8.5 6.6 0.5 57 3.3 CALM 0 0 0 0 1021.1 - 0.0
31/07:00am 6.1 4.1 0.1 65 2.4 CALM 0 2 0 1 1020.6 - 0.0
31/06:30am 4.6 2.7 0.6 75 1.6 CALM 0 0 0 0 1020.1 - 0.0
31/06:00am 4.6 2.7 0.8 76 1.5 CALM 0 0 0 0 1019.9 1019.9 0.0
31/05:30am 5.3 2.6 0.6 72 1.9 NNE 4 7 2 4 1019.8 - 0.0
31/05:00am 5.5 3.5 0.1 68 2.1 CALM 0 0 0 0 1019.8 - 0.0
31/04:30am 6.0 4.1 0.3 67 2.3 CALM 0 0 0 0 1019.8 - 0.0
31/04:00am 6.8 3.8 0.5 64 2.5 SE 6 7 3 4 1019.6 - 0.0
31/03:30am 7.7 4.3 -0.5 56 3.2 SE 7 7 4 4 1019.6 - 0.0
31/03:00am 9.0 5.6 -0.5 51 3.8 ESE 7 7 4 4 1019.6 1019.6 0.0
31/02:30am 9.7 5.5 -1.2 46 4.3 SE 11 13 6 7 1019.9 - 0.0
31/02:00am 9.9 5.7 -1.1 46 4.4 SE 11 11 6 6 1020.0 - 0.0
31/01:30am 9.9 6.0 -1.2 46 4.4 SE 9 11 5 6 1020.3 - 0.0
31/01:00am 10.3 6.1 -0.8 46 4.5 SE 11 11 6 6 1020.3 - 0.0
31/12:30am 10.7 6.5 -0.7 45 4.6 SE 11 11 6 6 1020.2 - 0.0
31/12:00am 11.0 6.9 -0.4 45 4.7 SE 11 11 6 6 1020.3 1020.3 0.0
 
Date/Time
EST
Temp
°C
App
Temp
°C
Dew
Point
Rel
Hum
%
Delta-T
°C
Wind Press
QNH
hPa
Press
MSL
hPa
Rain
since 9 am
mm
Dir
 
Spd
km/h
Gust
km/h
Spd
kts
Gust
kts
30/11:30pm 11.3 7.5 -0.4 44 4.8 SE 9 11 5 6 1020.4 - 0.0
30/11:00pm 11.3 7.7 0.7 48 4.5 SE 9 11 5 6 1020.4 - 0.0
30/10:30pm 12.0 8.3 -0.3 42 5.1 SE 9 11 5 6 1020.4 - 0.0
30/10:00pm 12.5 8.4 -0.4 41 5.4 SE 11 11 6 6 1020.3 - 0.0
30/09:30pm 12.4 8.7 -0.3 41 5.3 SE 9 9 5 5 1020.1 - 0.0
30/09:00pm 13.1 9.3 -0.4 39 5.6 SE 9 9 5 5 1020.2 1020.2 0.0
30/08:30pm 14.4 10.6 -0.6 35 6.3 S 9 11 5 6 1020.1 - 0.0
30/08:00pm 15.5 11.7 -1.1 32 7.0 SE 9 11 5 6 1019.9 - 0.0
30/07:30pm 16.6 12.7 -1.2 29 7.6 S 9 9 5 5 1019.6 - 0.0
30/07:00pm 17.5 13.2 -1.4 27 8.1 S 11 11 6 6 1019.3 - 0.0
30/06:30pm 18.6 14.3 -1.5 25 8.6 S 11 13 6 7 1019.1 - 0.0
30/06:00pm 20.7 16.2 -3.1 20 10.1 S 11 15 6 8 1019.0 1019.0 0.0
30/05:30pm 22.1 17.2 -3.0 18 10.8 SSE 13 17 7 9 1018.9 - 0.0
30/05:00pm 22.8 17.2 -6.7 13 11.9 SSE 15 20 8 11 1018.7 - 0.0

Other Formats:

Comma delimited format used in spreadsheet applications
http://www.bom.gov.au/fwo/IDQ60801/IDQ60801.94510.axf

JavaScript Object Notation format (JSON) in row-major order
http://www.bom.gov.au/fwo/IDQ60801/IDQ60801.94510.json